createdAt,value
2019-06-26T00:00:53.908Z,10.48
2019-06-26T00:03:23.782Z,8.95
2019-06-26T00:05:53.872Z,7.10
2019-06-26T00:08:23.782Z,11.10
2019-06-26T00:10:53.848Z,10.68
2019-06-26T00:13:26.732Z,10.48
2019-06-26T00:15:55.329Z,9.40
2019-06-26T00:18:25.058Z,12.90
2019-06-26T00:20:54.658Z,10.95
2019-06-26T00:23:24.356Z,9.18
2019-06-26T00:25:54.289Z,10.20
2019-06-26T00:28:24.400Z,9.63
2019-06-26T00:30:53.946Z,10.20
2019-06-26T00:33:23.787Z,9.50
2019-06-26T00:35:53.882Z,10.55
2019-06-26T00:38:23.660Z,10.45
2019-06-26T00:40:53.439Z,12.47
2019-06-26T00:43:23.230Z,7.95
2019-06-26T00:45:53.496Z,6.65
2019-06-26T00:48:23.270Z,8.80
2019-06-26T00:50:53.221Z,6.47
2019-06-26T00:53:22.879Z,8.23
2019-06-26T00:55:55.220Z,7.00
2019-06-26T00:58:24.896Z,11.73
2019-06-26T01:00:55.148Z,13.40
2019-06-26T01:03:25.277Z,7.17
2019-06-26T01:05:55.040Z,7.33
2019-06-26T01:08:24.934Z,11.35
2019-06-26T01:10:54.822Z,8.63
2019-06-26T01:13:24.512Z,9.30
2019-06-26T01:15:54.205Z,12.28
2019-06-26T01:18:23.969Z,10.45
2019-06-26T01:20:54.019Z,8.85
2019-06-26T01:23:23.752Z,10.72
2019-06-26T01:25:53.679Z,10.50
2019-06-26T01:28:23.667Z,9.60
2019-06-26T01:30:53.604Z,10.88
2019-06-26T01:33:23.533Z,8.75
2019-06-26T01:35:53.616Z,9.75
2019-06-26T01:38:23.446Z,12.65
2019-06-26T01:40:53.398Z,14.23
2019-06-26T01:43:23.143Z,12.33
2019-06-26T01:45:52.979Z,11.35
2019-06-26T01:48:22.682Z,17.95
2019-06-26T01:50:52.446Z,29.18
2019-06-26T01:53:22.139Z,20.68
2019-06-26T01:55:51.888Z,18.37
2019-06-26T01:58:21.543Z,23.12
2019-06-26T02:00:51.296Z,22.37
2019-06-26T02:03:20.961Z,24.27
2019-06-26T02:05:50.711Z,19.40
2019-06-26T02:08:20.381Z,21.65
2019-06-26T02:10:50.161Z,17.90
2019-06-26T02:13:19.890Z,24.98
2019-06-26T02:15:49.664Z,22.30
2019-06-26T02:18:36.205Z,18.73
2019-06-26T02:21:05.946Z,13.15
2019-06-26T02:23:35.731Z,18.07
2019-06-26T02:26:05.953Z,21.37
2019-06-26T02:28:35.695Z,23.00
2019-06-26T02:31:05.562Z,43.58
2019-06-26T02:33:35.172Z,42.30
2019-06-26T02:36:05.196Z,42.23
2019-06-26T02:38:34.833Z,39.25
2019-06-26T02:41:04.821Z,38.05
2019-06-26T02:43:35.267Z,35.50
2019-06-26T02:46:05.365Z,35.20
2019-06-26T02:48:35.096Z,30.97
2019-06-26T02:51:05.225Z,23.67
2019-06-26T02:53:35.111Z,17.60
2019-06-26T02:56:04.952Z,19.67
2019-06-26T02:58:34.624Z,16.15
2019-06-26T03:01:04.831Z,19.77
2019-06-26T03:03:34.780Z,18.00
2019-06-26T03:06:04.735Z,19.07
2019-06-26T03:08:34.743Z,21.30
2019-06-26T03:11:05.682Z,20.60
2019-06-26T03:13:36.391Z,28.17
2019-06-26T03:16:06.942Z,30.10
2019-06-26T03:18:37.288Z,35.68
2019-06-26T03:21:07.654Z,26.97
2019-06-26T03:23:38.123Z,27.75
2019-06-26T03:26:09.032Z,26.37
2019-06-26T03:28:39.818Z,25.80
2019-06-26T03:31:10.704Z,29.15
2019-06-26T03:33:41.758Z,25.65
2019-06-26T03:36:12.336Z,27.35
2019-06-26T03:38:42.948Z,28.15
2019-06-26T03:41:13.713Z,24.37
2019-06-26T03:43:44.296Z,23.32
2019-06-26T03:46:15.098Z,18.57
2019-06-26T03:48:45.868Z,17.35
2019-06-26T03:51:16.113Z,17.02
2019-06-26T03:53:47.170Z,22.40
2019-06-26T03:56:17.555Z,19.07
2019-06-26T03:58:48.084Z,22.35
2019-06-26T04:01:18.584Z,27.87
2019-06-26T04:03:49.222Z,31.05
2019-06-26T04:06:19.756Z,33.73
2019-06-26T04:08:50.468Z,31.40
2019-06-26T04:11:20.802Z,47.05
2019-06-26T04:13:51.319Z,36.25
2019-06-26T04:16:22.297Z,28.02
2019-06-26T04:18:52.948Z,31.70
2019-06-26T04:21:23.735Z,29.67
2019-06-26T04:23:53.988Z,21.73
2019-06-26T04:26:24.727Z,24.67
2019-06-26T04:28:55.220Z,24.27
2019-06-26T04:31:25.469Z,25.12
2019-06-26T04:33:55.991Z,24.52
2019-06-26T04:36:26.652Z,24.87
2019-06-26T04:38:57.278Z,23.57
2019-06-26T04:41:27.997Z,23.90
2019-06-26T04:43:58.746Z,30.23
2019-06-26T04:46:29.797Z,22.07
2019-06-26T04:49:00.139Z,17.62
2019-06-26T04:51:30.801Z,13.98
2019-06-26T04:54:01.293Z,17.27
2019-06-26T04:56:31.784Z,14.15
2019-06-26T04:59:02.271Z,13.85
2019-06-26T05:01:32.598Z,14.58
2019-06-26T05:04:02.978Z,18.07
2019-06-26T05:06:33.546Z,17.23
2019-06-26T05:09:04.915Z,21.70
2019-06-26T05:11:35.667Z,22.00
2019-06-26T05:14:06.512Z,18.70
2019-06-26T05:16:37.308Z,19.12
2019-06-26T05:19:07.717Z,19.37
2019-06-26T05:21:38.452Z,19.65
2019-06-26T05:24:09.125Z,16.95
2019-06-26T05:26:40.255Z,20.45
2019-06-26T05:29:11.068Z,19.27
2019-06-26T05:31:41.666Z,21.27
2019-06-26T05:34:12.206Z,26.57
2019-06-26T05:36:43.333Z,24.25
2019-06-26T05:39:13.720Z,22.52
2019-06-26T05:41:44.687Z,24.25
2019-06-26T05:44:15.387Z,24.57
2019-06-26T05:46:47.251Z,29.87
2019-06-26T05:49:18.053Z,32.78
2019-06-26T05:51:48.752Z,29.82
2019-06-26T05:54:19.611Z,38.15
2019-06-26T05:56:50.389Z,33.55
2019-06-26T05:59:20.887Z,38.58
2019-06-26T06:01:50.998Z,37.40
2019-06-26T06:04:22.061Z,35.92
2019-06-26T06:06:52.491Z,29.55
2019-06-26T06:09:22.945Z,26.40
2019-06-26T06:11:53.119Z,22.48
2019-06-26T06:14:23.729Z,17.48
2019-06-26T06:16:54.225Z,21.68
2019-06-26T06:19:24.611Z,25.15
2019-06-26T06:21:55.007Z,24.80
2019-06-26T06:24:25.050Z,19.32
2019-06-26T06:26:55.062Z,30.00
2019-06-26T06:29:25.310Z,16.25
2019-06-26T06:31:55.552Z,22.25
2019-06-26T06:34:25.820Z,22.22
2019-06-26T06:36:56.324Z,29.65
2019-06-26T06:39:26.739Z,21.30
2019-06-26T06:41:57.548Z,27.70
2019-06-26T06:44:28.054Z,28.27
2019-06-26T06:47:04.027Z,28.62
2019-06-26T06:49:30.589Z,24.50
2019-06-26T06:52:01.580Z,25.65
2019-06-26T06:54:32.202Z,24.55
2019-06-26T06:57:02.805Z,18.42
2019-06-26T06:59:33.392Z,20.90
2019-06-26T07:02:04.055Z,18.65
2019-06-26T07:04:34.494Z,23.35
2019-06-26T07:07:05.222Z,31.48
2019-06-26T07:09:35.914Z,25.57
2019-06-26T07:12:06.402Z,29.35
2019-06-26T07:14:37.054Z,30.68
2019-06-26T07:17:19.734Z,30.43
2019-06-26T07:19:39.707Z,22.87
2019-06-26T07:22:10.021Z,29.32
2019-06-26T07:24:40.161Z,15.35
2019-06-26T07:27:10.369Z,24.40
2019-06-26T07:29:40.633Z,19.52
2019-06-26T07:32:11.255Z,27.93
2019-06-26T07:34:41.383Z,21.52
2019-06-26T07:37:11.700Z,17.45
2019-06-26T07:39:42.079Z,11.73
2019-06-26T07:42:12.397Z,14.38
2019-06-26T07:44:42.513Z,19.67
2019-06-26T07:47:23.070Z,16.90
2019-06-26T07:49:44.642Z,17.90
2019-06-26T07:52:14.829Z,20.95
2019-06-26T07:54:45.087Z,23.40
2019-06-26T07:57:15.634Z,17.87
2019-06-26T07:59:45.968Z,18.52
2019-06-26T08:02:16.262Z,22.45
2019-06-26T08:04:46.630Z,24.35
2019-06-26T08:07:16.864Z,30.65
2019-06-26T08:09:47.225Z,29.25
2019-06-26T08:12:17.512Z,29.07
2019-06-26T08:14:47.730Z,28.25
2019-06-26T08:17:18.142Z,13.60
2019-06-26T08:19:48.376Z,20.43
2019-06-26T08:22:18.605Z,16.80
2019-06-26T08:24:49.046Z,14.47
2019-06-26T08:27:19.550Z,13.90
2019-06-26T08:29:49.990Z,18.65
2019-06-26T08:32:20.213Z,14.63
2019-06-26T08:34:50.568Z,18.07
2019-06-26T08:37:20.927Z,12.10
2019-06-26T08:39:50.846Z,15.55
2019-06-26T08:42:20.938Z,12.37
2019-06-26T08:44:50.973Z,13.28
2019-06-26T08:47:21.358Z,10.00
2019-06-26T08:49:51.683Z,8.13
2019-06-26T08:52:22.290Z,27.87
2019-06-26T08:54:52.334Z,13.62
2019-06-26T08:57:22.842Z,10.82
2019-06-26T08:59:53.280Z,13.98
2019-06-26T09:02:23.621Z,15.63
2019-06-26T09:04:53.902Z,13.98
2019-06-26T09:07:24.130Z,11.65
2019-06-26T09:09:54.213Z,12.45
2019-06-26T09:12:24.304Z,10.40
2019-06-26T09:14:54.463Z,10.13
2019-06-26T09:17:24.968Z,9.43
2019-06-26T09:19:55.332Z,8.63
2019-06-26T09:22:25.594Z,12.63
2019-06-26T09:24:55.849Z,11.60
2019-06-26T09:27:26.336Z,8.98
2019-06-26T09:29:56.379Z,14.95
2019-06-26T09:32:26.531Z,10.82
2019-06-26T09:34:56.838Z,7.33
2019-06-26T09:37:27.205Z,11.35
2019-06-26T09:39:57.644Z,7.50
2019-06-26T09:42:27.705Z,10.32
2019-06-26T09:44:57.724Z,11.35
2019-06-26T09:47:30.860Z,9.83
2019-06-26T09:49:59.547Z,11.75
2019-06-26T09:52:30.535Z,9.73
2019-06-26T09:55:00.842Z,8.63
2019-06-26T09:57:31.140Z,9.18
2019-06-26T10:00:01.283Z,9.30
2019-06-26T10:02:31.739Z,7.35
2019-06-26T10:05:01.855Z,13.70
2019-06-26T10:07:32.028Z,8.20
2019-06-26T10:10:02.375Z,16.60
2019-06-26T10:12:32.514Z,6.67
2019-06-26T10:15:02.823Z,10.08
2019-06-26T10:17:33.132Z,13.85
2019-06-26T10:20:03.263Z,17.70
2019-06-26T10:22:33.596Z,14.10
2019-06-26T10:25:03.834Z,21.42
2019-06-26T10:27:34.140Z,22.37
2019-06-26T10:30:05.942Z,13.08
2019-06-26T10:32:36.078Z,13.58
2019-06-26T10:35:07.709Z,12.78
2019-06-26T10:37:38.114Z,18.77
2019-06-26T10:40:08.637Z,15.60
2019-06-26T10:42:38.660Z,9.23
2019-06-26T10:45:10.201Z,10.20
2019-06-26T10:47:40.660Z,8.98
2019-06-26T10:50:10.985Z,9.40
2019-06-26T10:52:41.347Z,11.35
2019-06-26T10:55:12.812Z,8.83
2019-06-26T10:57:42.783Z,7.58
2019-06-26T11:00:13.430Z,7.40
2019-06-26T11:02:44.260Z,7.40
2019-06-26T11:05:15.815Z,7.12
2019-06-26T11:07:46.022Z,10.72
2019-06-26T11:10:16.755Z,10.38
2019-06-26T11:12:49.015Z,9.25
2019-06-26T11:15:18.900Z,5.33
2019-06-26T11:17:48.932Z,11.95
2019-06-26T11:20:19.514Z,8.93
2019-06-26T11:22:50.099Z,7.30
2019-06-26T11:25:22.045Z,11.75
2019-06-26T11:27:52.287Z,9.68
2019-06-26T11:30:23.194Z,6.75
2019-06-26T11:32:53.703Z,7.90
2019-06-26T11:35:23.987Z,9.75
2019-06-26T11:37:54.406Z,10.63
2019-06-26T11:40:24.884Z,9.38
2019-06-26T11:42:54.923Z,7.60
2019-06-26T11:45:25.234Z,8.80
2019-06-26T11:47:55.488Z,9.00
2019-06-26T11:50:26.020Z,10.32
2019-06-26T11:52:56.301Z,10.50
2019-06-26T11:55:26.386Z,11.65
2019-06-26T11:57:56.472Z,12.07
2019-06-26T12:00:28.348Z,14.03
2019-06-26T12:02:59.106Z,6.93
2019-06-26T12:05:29.382Z,9.53
2019-06-26T12:07:59.574Z,9.73
2019-06-26T12:10:29.709Z,11.18
2019-06-26T12:13:03.744Z,10.68
2019-06-26T12:15:32.049Z,9.45
2019-06-26T12:18:02.343Z,13.00
2019-06-26T12:20:32.842Z,11.68
2019-06-26T12:23:03.024Z,12.80
2019-06-26T12:25:33.790Z,9.23
2019-06-26T12:28:03.977Z,12.85
2019-06-26T12:30:34.349Z,9.48
2019-06-26T12:33:04.592Z,10.68
2019-06-26T12:35:35.099Z,10.28
2019-06-26T12:38:05.324Z,9.83
2019-06-26T12:40:35.550Z,9.83
2019-06-26T12:43:06.039Z,12.40
2019-06-26T12:45:36.844Z,11.08
2019-06-26T12:48:07.276Z,11.12
2019-06-26T12:50:37.682Z,9.08
2019-06-26T12:53:08.272Z,9.68
2019-06-26T12:55:39.001Z,10.08
2019-06-26T12:58:13.835Z,14.45
2019-06-26T13:00:41.590Z,12.00
2019-06-26T13:03:12.194Z,9.38
2019-06-26T13:05:42.626Z,12.93
2019-06-26T13:08:12.702Z,11.48
2019-06-26T13:10:49.467Z,10.82
2019-06-26T13:13:15.249Z,10.78
2019-06-26T13:15:45.467Z,6.95
2019-06-26T13:18:15.702Z,10.72
2019-06-26T13:20:52.809Z,12.18
2019-06-26T13:23:18.083Z,11.23
2019-06-26T13:25:48.224Z,12.07
2019-06-26T13:28:18.620Z,10.03
2019-06-26T13:30:48.892Z,8.85
2019-06-26T13:33:18.966Z,16.27
2019-06-26T13:35:49.332Z,11.05
2019-06-26T13:38:19.531Z,8.55
2019-06-26T13:40:49.580Z,11.15
2019-06-26T13:43:20.557Z,11.53
2019-06-26T13:45:51.069Z,10.28
2019-06-26T13:48:21.620Z,10.03
2019-06-26T13:51:07.858Z,12.63
2019-06-26T13:53:24.618Z,18.27
2019-06-26T13:55:55.099Z,12.30
2019-06-26T13:58:25.715Z,9.15
2019-06-26T14:00:56.307Z,10.60
2019-06-26T14:03:26.605Z,10.00
2019-06-26T14:05:57.209Z,11.15
2019-06-26T14:08:28.190Z,13.48
2019-06-26T14:10:58.524Z,16.32
2019-06-26T14:13:29.007Z,15.10
2019-06-26T14:15:59.246Z,16.30
2019-06-26T14:18:30.542Z,13.10
2019-06-26T14:21:00.813Z,10.38
2019-06-26T14:23:31.182Z,15.40
2019-06-26T14:26:01.450Z,15.50
2019-06-26T14:28:31.742Z,23.60
2019-06-26T14:31:01.887Z,10.03
2019-06-26T14:33:32.261Z,10.60
2019-06-26T14:36:02.906Z,10.32
2019-06-26T14:38:33.227Z,14.35
2019-06-26T14:41:03.611Z,13.90
2019-06-26T14:43:34.427Z,8.40
2019-06-26T14:46:05.065Z,9.23
2019-06-26T14:48:36.142Z,11.30
2019-06-26T14:51:06.765Z,10.10
2019-06-26T14:53:36.916Z,13.90
2019-06-26T14:56:07.434Z,16.85
2019-06-26T14:58:38.115Z,15.78
2019-06-26T15:01:08.757Z,11.45
2019-06-26T15:03:39.311Z,13.35
2019-06-26T15:06:16.231Z,11.65
2019-06-26T15:08:42.151Z,13.05
2019-06-26T15:11:15.545Z,11.78
2019-06-26T15:13:44.972Z,8.65
2019-06-26T15:16:15.436Z,12.03
2019-06-26T15:18:45.799Z,7.05
2019-06-26T15:21:16.063Z,14.60
2019-06-26T15:23:46.777Z,10.30
2019-06-26T15:26:17.324Z,10.70
2019-06-26T15:28:48.102Z,13.22
2019-06-26T15:31:18.301Z,33.75
2019-06-26T15:33:49.187Z,15.38
2019-06-26T15:36:19.359Z,10.38
2019-06-26T15:38:49.600Z,11.00
2019-06-26T15:41:20.406Z,18.40
2019-06-26T15:43:50.858Z,15.08
2019-06-26T15:46:21.255Z,13.15
2019-06-26T15:48:51.587Z,13.90
2019-06-26T15:51:22.241Z,13.58
2019-06-26T15:53:52.588Z,8.75
2019-06-26T15:56:22.993Z,10.63
2019-06-26T15:58:53.474Z,11.35
2019-06-26T16:01:25.374Z,13.28
2019-06-26T16:03:55.709Z,12.80
2019-06-26T16:06:26.265Z,10.53
2019-06-26T16:08:56.776Z,15.60
2019-06-26T16:11:27.656Z,10.08
2019-06-26T16:13:59.449Z,10.08
2019-06-26T16:16:30.417Z,14.75
2019-06-26T16:19:06.982Z,13.40
2019-06-26T16:21:37.636Z,11.95
2019-06-26T16:24:08.098Z,17.67
2019-06-26T16:26:38.522Z,12.60
2019-06-26T16:29:09.073Z,11.65
2019-06-26T16:31:39.775Z,11.88
2019-06-26T16:34:09.991Z,13.48
2019-06-26T16:36:40.401Z,12.33
2019-06-26T16:39:11.242Z,12.75
2019-06-26T16:41:42.098Z,13.22
2019-06-26T16:44:12.822Z,14.80
2019-06-26T16:46:43.317Z,13.53
2019-06-26T16:49:14.008Z,12.45
2019-06-26T16:51:44.578Z,12.70
2019-06-26T16:54:14.989Z,10.68
2019-06-26T16:56:45.287Z,15.03
2019-06-26T16:59:15.768Z,10.85
2019-06-26T17:01:45.923Z,9.68
2019-06-26T17:04:16.094Z,13.72
2019-06-26T17:06:46.231Z,13.72
2019-06-26T17:09:16.601Z,12.80
2019-06-26T17:11:46.790Z,15.45
2019-06-26T17:14:17.459Z,13.55
2019-06-26T17:16:47.484Z,11.57
2019-06-26T17:19:17.910Z,12.47
2019-06-26T17:21:49.010Z,13.05
2019-06-26T17:24:19.449Z,14.58
2019-06-26T17:26:49.534Z,13.62
2019-06-26T17:29:20.287Z,12.00
2019-06-26T17:31:50.725Z,13.72
2019-06-26T17:34:20.922Z,15.65
2019-06-26T17:36:51.493Z,12.90
2019-06-26T17:39:22.117Z,13.62
2019-06-26T17:41:53.046Z,12.13
2019-06-26T17:44:23.677Z,13.75
2019-06-26T17:46:54.075Z,13.62
2019-06-26T17:49:24.711Z,13.20
2019-06-26T17:51:55.428Z,13.85
2019-06-26T17:54:25.670Z,14.98
2019-06-26T17:56:56.297Z,12.23
2019-06-26T17:59:26.813Z,11.57
2019-06-26T18:01:57.584Z,13.45
2019-06-26T18:04:27.752Z,13.62
2019-06-26T18:06:58.377Z,13.72
2019-06-26T18:09:29.210Z,10.88
2019-06-26T18:11:59.690Z,11.85
2019-06-26T18:14:30.363Z,10.53
2019-06-26T18:17:01.266Z,10.95
2019-06-26T18:19:31.820Z,18.02
2019-06-26T18:22:01.845Z,12.80
2019-06-26T18:24:32.411Z,13.98
2019-06-26T18:27:02.516Z,13.32
2019-06-26T18:29:32.733Z,12.05
2019-06-26T18:32:03.143Z,13.05
2019-06-26T18:34:34.045Z,19.25
2019-06-26T18:37:04.444Z,13.72
2019-06-26T18:39:34.933Z,15.32
2019-06-26T18:42:05.604Z,14.35
2019-06-26T18:44:35.907Z,13.58
2019-06-26T18:47:07.139Z,19.12
2019-06-26T18:49:37.318Z,15.45
2019-06-26T18:52:07.989Z,16.50
2019-06-26T18:54:38.385Z,14.65
2019-06-26T18:57:08.743Z,11.53
2019-06-26T18:59:42.209Z,14.00
2019-06-26T19:02:11.452Z,15.80
2019-06-26T19:04:41.982Z,16.20
2019-06-26T19:07:12.265Z,15.40
2019-06-26T19:09:42.611Z,15.03
2019-06-26T19:12:12.675Z,15.23
2019-06-26T19:14:46.078Z,16.57
2019-06-26T19:17:15.522Z,19.15
2019-06-26T19:19:46.090Z,16.27
2019-06-26T19:22:16.736Z,11.22
2019-06-26T19:24:46.842Z,12.58
2019-06-26T19:27:17.781Z,13.75
2019-06-26T19:29:48.007Z,11.10
2019-06-26T19:32:18.353Z,12.20
2019-06-26T19:34:48.627Z,12.43
2019-06-26T19:37:19.290Z,11.78
2019-06-26T19:39:49.896Z,16.85
2019-06-26T19:42:20.296Z,11.95
2019-06-26T19:44:50.766Z,10.48
2019-06-26T19:47:21.232Z,14.00
2019-06-26T19:49:51.746Z,15.65
2019-06-26T19:52:22.620Z,12.78
2019-06-26T19:54:52.751Z,15.93
2019-06-26T19:57:23.665Z,10.78
2019-06-26T19:59:54.161Z,16.10
2019-06-26T20:02:24.693Z,14.55
2019-06-26T20:04:55.739Z,18.05
2019-06-26T20:07:27.448Z,13.25
2019-06-26T20:10:01.563Z,12.88
2019-06-26T20:12:29.814Z,16.70
2019-06-26T20:14:59.795Z,16.73
2019-06-26T20:17:30.367Z,15.85
2019-06-26T20:20:00.627Z,16.75
2019-06-26T20:22:30.668Z,17.42
2019-06-26T20:25:00.736Z,22.67
2019-06-26T20:27:30.622Z,21.05
2019-06-26T20:30:00.360Z,17.25
2019-06-26T20:32:30.161Z,16.45
2019-06-26T20:35:00.087Z,20.00
2019-06-26T20:37:30.105Z,20.23
2019-06-26T20:39:59.816Z,15.38
2019-06-26T20:42:29.563Z,17.20
2019-06-26T20:44:59.420Z,17.00
2019-06-26T20:47:29.155Z,16.93
2019-06-26T20:49:58.951Z,17.05
2019-06-26T20:52:28.763Z,17.50
2019-06-26T20:55:01.882Z,19.70
2019-06-26T20:57:30.179Z,21.40
2019-06-26T20:59:59.822Z,25.27
2019-06-26T21:02:29.747Z,18.20
2019-06-26T21:04:59.557Z,19.25
2019-06-26T21:07:29.227Z,22.70
2019-06-26T21:09:58.964Z,22.52
2019-06-26T21:12:28.730Z,26.00
2019-06-26T21:14:58.407Z,18.57
2019-06-26T21:17:28.289Z,22.25
2019-06-26T21:19:58.084Z,19.17
2019-06-26T21:22:27.824Z,19.70
2019-06-26T21:24:57.681Z,23.45
2019-06-26T21:27:27.532Z,17.95
2019-06-26T21:29:57.176Z,21.23
2019-06-26T21:32:27.069Z,20.10
2019-06-26T21:34:56.819Z,22.70
2019-06-26T21:37:26.675Z,17.65
2019-06-26T21:39:56.351Z,18.23
2019-06-26T21:42:26.091Z,17.23
2019-06-26T21:44:55.678Z,21.93
2019-06-26T21:47:25.296Z,20.92
2019-06-26T21:49:55.016Z,20.60
2019-06-26T21:52:24.754Z,19.30
2019-06-26T21:54:54.586Z,21.33
2019-06-26T21:57:24.547Z,18.15
2019-06-26T21:59:54.551Z,20.85
2019-06-26T22:02:24.592Z,19.00
2019-06-26T22:04:54.451Z,19.55
2019-06-26T22:07:24.737Z,17.98
2019-06-26T22:09:55.576Z,17.57
2019-06-26T22:12:25.654Z,18.17
2019-06-26T22:14:55.462Z,19.25
2019-06-26T22:17:25.483Z,18.85
2019-06-26T22:19:55.177Z,20.10
2019-06-26T22:22:25.134Z,17.67
2019-06-26T22:24:54.964Z,17.70
2019-06-26T22:27:24.950Z,20.43
2019-06-26T22:29:54.858Z,18.20
2019-06-26T22:32:24.805Z,21.25
2019-06-26T22:34:54.935Z,18.45
2019-06-26T22:37:25.018Z,17.98
2019-06-26T22:39:54.887Z,17.75
2019-06-26T22:42:25.126Z,19.27
2019-06-26T22:44:54.887Z,18.10
2019-06-26T22:47:24.709Z,20.08
2019-06-26T22:49:54.598Z,20.20
2019-06-26T22:52:24.738Z,19.30
2019-06-26T22:54:54.505Z,20.37
2019-06-26T22:57:24.673Z,18.73
2019-06-26T22:59:54.398Z,18.62
2019-06-26T23:02:24.544Z,21.95
2019-06-26T23:04:54.297Z,19.45
2019-06-26T23:07:24.309Z,20.32
2019-06-26T23:09:54.086Z,18.85
2019-06-26T23:12:23.986Z,19.55
2019-06-26T23:14:53.691Z,19.87
2019-06-26T23:17:23.762Z,20.12
2019-06-26T23:19:53.579Z,19.23
2019-06-26T23:22:23.534Z,18.52
2019-06-26T23:24:53.230Z,20.77
2019-06-26T23:27:22.972Z,20.27
2019-06-26T23:29:52.614Z,19.75
2019-06-26T23:32:22.291Z,19.92
2019-06-26T23:34:52.070Z,21.75
2019-06-26T23:37:21.777Z,20.37
2019-06-26T23:39:51.724Z,21.15
2019-06-26T23:42:21.570Z,20.23
2019-06-26T23:44:51.449Z,22.62
2019-06-26T23:47:21.324Z,21.85
2019-06-26T23:49:51.109Z,22.98
2019-06-26T23:52:20.746Z,21.15
2019-06-26T23:54:50.440Z,20.95
2019-06-26T23:57:20.292Z,20.85
2019-06-26T23:59:50.038Z,24.00
